createdAt,value
2024-04-08T04:27:46.104Z,6.27
2024-04-08T04:30:13.829Z,5.77
2024-04-08T04:32:44.250Z,9.07
2024-04-08T04:35:11.947Z,6.30
2024-04-08T04:37:42.691Z,30.97
2024-04-08T04:40:11.432Z,20.93
2024-04-08T04:42:41.751Z,20.50
2024-04-08T04:45:12.214Z,33.00
2024-04-08T04:47:42.865Z,31.07
2024-04-08T04:50:10.574Z,21.10
2024-04-08T04:52:40.840Z,16.90
2024-04-08T04:55:08.694Z,16.50
2024-04-08T04:57:39.045Z,8.90
2024-04-08T05:00:11.739Z,16.10
2024-04-08T05:02:43.638Z,11.73
2024-04-08T05:05:11.364Z,12.97
2024-04-08T05:07:41.667Z,9.60
2024-04-08T05:10:09.838Z,10.67
2024-04-08T05:12:40.169Z,15.80
2024-04-08T05:15:10.643Z,7.50
2024-04-08T05:17:41.028Z,7.23
2024-04-08T05:20:11.392Z,10.47
2024-04-08T05:22:49.201Z,7.63
2024-04-08T05:25:18.220Z,11.77
2024-04-08T05:27:48.471Z,8.17
2024-04-08T05:30:18.866Z,12.97
2024-04-08T05:32:49.163Z,12.80
2024-04-08T05:35:17.112Z,8.33
2024-04-08T05:37:48.477Z,6.63
2024-04-08T05:40:23.082Z,10.13
2024-04-08T05:42:53.576Z,11.33
2024-04-08T05:45:23.884Z,10.23
2024-04-08T05:47:55.659Z,13.30
2024-04-08T05:50:24.525Z,11.43
2024-04-08T05:52:55.245Z,12.90
2024-04-08T05:55:23.120Z,10.70
2024-04-08T05:57:53.452Z,5.97
2024-04-08T06:00:23.804Z,9.20
2024-04-08T06:02:56.191Z,7.67
2024-04-08T06:05:27.256Z,10.80
2024-04-08T06:07:59.002Z,8.53
2024-04-08T06:10:32.174Z,6.90
2024-04-08T06:13:04.908Z,7.37
2024-04-08T06:15:41.404Z,8.10
2024-04-08T06:18:15.485Z,10.60
2024-04-08T06:20:44.108Z,22.40
2024-04-08T06:23:14.415Z,11.53
2024-04-08T06:25:44.727Z,9.33
2024-04-08T06:28:15.012Z,8.63
2024-04-08T06:30:45.385Z,11.00
2024-04-08T06:33:15.821Z,6.93
2024-04-08T06:35:45.469Z,10.83
2024-04-08T06:38:16.169Z,16.63
2024-04-08T06:40:44.914Z,7.77
2024-04-08T06:43:15.142Z,15.97
2024-04-08T06:45:45.491Z,9.53
2024-04-08T06:48:15.834Z,20.37
2024-04-08T06:50:43.638Z,12.90
2024-04-08T06:53:13.947Z,9.93
2024-04-08T06:55:42.311Z,11.77
2024-04-08T06:58:16.307Z,14.80
2024-04-08T07:00:50.086Z,14.73
2024-04-08T07:03:24.432Z,13.70
2024-04-08T07:05:52.141Z,11.93
2024-04-08T07:08:22.404Z,10.27
2024-04-08T07:10:50.149Z,8.23
2024-04-08T07:13:20.423Z,13.93
2024-04-08T07:15:57.039Z,11.17
2024-04-08T07:18:27.766Z,14.17
2024-04-08T07:20:55.473Z,12.90
2024-04-08T07:23:31.048Z,10.70
2024-04-08T07:26:03.042Z,8.97
2024-04-08T07:28:33.365Z,8.83
2024-04-08T07:31:03.808Z,13.33
2024-04-08T07:33:34.082Z,12.23
2024-04-08T07:36:01.922Z,7.50
2024-04-08T07:38:33.579Z,15.20
2024-04-08T07:41:01.234Z,14.73
2024-04-08T07:43:31.736Z,11.73
2024-04-08T07:45:59.317Z,19.20
2024-04-08T07:48:32.395Z,13.90
2024-04-08T07:51:00.278Z,11.20
2024-04-08T07:53:31.201Z,11.27
2024-04-08T07:55:59.098Z,14.40
2024-04-08T07:58:31.725Z,12.37
2024-04-08T08:00:59.719Z,10.90
2024-04-08T08:03:32.853Z,12.30
2024-04-08T08:06:01.890Z,15.50
2024-04-08T08:08:33.111Z,12.33
2024-04-08T08:11:05.048Z,11.07
2024-04-08T08:13:35.544Z,10.37
2024-04-08T08:16:06.658Z,7.83
2024-04-08T08:18:39.570Z,10.37
2024-04-08T08:21:10.008Z,6.43
2024-04-08T08:23:42.517Z,11.93
2024-04-08T08:26:12.888Z,10.30
2024-04-08T08:28:43.204Z,15.90
2024-04-08T08:31:13.527Z,9.60
2024-04-08T08:33:46.851Z,9.23
2024-04-08T08:36:14.879Z,12.15
2024-04-08T08:38:45.497Z,7.47
2024-04-08T08:41:17.121Z,12.00
2024-04-08T08:43:48.369Z,12.00
2024-04-08T08:46:19.270Z,10.73
2024-04-08T08:48:53.291Z,9.13
2024-04-08T08:51:26.022Z,17.70
2024-04-08T08:53:53.837Z,8.48
2024-04-08T08:56:24.141Z,6.30
2024-04-08T08:58:56.639Z,11.70
2024-04-08T09:01:28.175Z,6.40
2024-04-08T09:04:01.381Z,5.25
2024-04-08T09:06:33.847Z,9.40
2024-04-08T09:09:03.368Z,11.95
2024-04-08T09:11:33.768Z,7.72
2024-04-08T09:14:07.881Z,11.88
2024-04-08T09:16:38.436Z,11.27
2024-04-08T09:19:08.949Z,12.48
2024-04-08T09:21:41.707Z,9.52
2024-04-08T09:24:10.237Z,9.63
2024-04-08T09:26:41.923Z,8.82
2024-04-08T09:29:09.644Z,9.57
2024-04-08T09:31:40.271Z,8.93
2024-04-08T09:34:11.491Z,11.63
2024-04-08T09:36:46.973Z,16.98
2024-04-08T09:39:16.056Z,9.05
2024-04-08T09:41:49.050Z,15.70
2024-04-08T09:44:19.356Z,12.20
2024-04-08T09:46:51.180Z,11.40
2024-04-08T09:49:27.319Z,7.95
2024-04-08T09:52:01.936Z,7.80
2024-04-08T09:54:29.790Z,25.25
2024-04-08T09:57:04.555Z,14.95
2024-04-08T09:59:36.328Z,8.02
2024-04-08T10:02:30.380Z,14.48
2024-04-08T10:07:42.863Z,9.50
2024-04-08T10:08:12.625Z,11.18
2024-04-08T10:10:41.928Z,13.38
2024-04-08T10:13:15.365Z,15.95
2024-04-08T10:19:10.155Z,10.57
2024-04-08T10:22:03.962Z,11.30
2024-04-08T10:24:41.927Z,14.73
2024-04-08T10:27:44.656Z,13.93
2024-04-08T10:30:31.367Z,17.90
2024-04-08T10:33:33.831Z,8.68
2024-04-08T10:36:09.226Z,15.77
2024-04-08T10:38:39.630Z,11.60
2024-04-08T10:41:10.895Z,15.15
2024-04-08T10:43:38.913Z,8.43
2024-04-08T10:46:16.291Z,12.75
2024-04-08T10:48:44.236Z,10.75
2024-04-08T10:51:18.052Z,10.57
2024-04-08T10:53:50.083Z,11.05
2024-04-08T10:56:20.731Z,10.13
2024-04-08T10:58:48.376Z,11.95
2024-04-08T11:01:24.983Z,8.77
2024-04-08T11:04:26.983Z,14.57
2024-04-08T11:06:57.238Z,13.55
2024-04-08T11:09:28.050Z,9.90
2024-04-08T11:11:58.381Z,11.38
2024-04-08T11:14:26.146Z,10.95
2024-04-08T11:17:00.228Z,7.30
2024-04-08T11:19:30.085Z,10.95
2024-04-08T11:22:00.686Z,13.15
2024-04-08T11:24:31.622Z,11.18
2024-04-08T11:27:04.475Z,6.78
2024-04-08T11:29:32.284Z,10.60
2024-04-08T11:32:02.864Z,10.57
2024-04-08T11:34:30.572Z,6.75
2024-04-08T11:37:04.757Z,9.35
2024-04-08T11:39:35.162Z,6.47
2024-04-08T11:42:05.393Z,8.68
2024-04-08T11:44:38.581Z,10.50
2024-04-08T11:47:19.972Z,17.45
2024-04-08T11:50:14.815Z,11.10
2024-04-08T11:52:48.466Z,14.02
2024-04-08T11:58:41.459Z,16.27
2024-04-08T12:01:24.040Z,17.20
2024-04-08T12:03:59.336Z,11.80
2024-04-08T12:06:37.482Z,13.55
2024-04-08T12:09:46.404Z,11.07
2024-04-08T12:12:19.329Z,16.25
2024-04-08T12:14:58.111Z,14.40
2024-04-08T12:17:34.780Z,14.63
2024-04-08T12:20:07.966Z,12.10
2024-04-08T12:22:47.936Z,14.23
2024-04-08T12:26:04.574Z,11.45
2024-04-08T12:28:51.239Z,27.35
2024-04-08T12:31:44.479Z,17.90
2024-04-08T12:34:13.294Z,16.13
2024-04-08T12:36:43.698Z,16.92
2024-04-08T12:39:11.539Z,17.55
2024-04-08T12:41:41.807Z,20.88
2024-04-08T12:44:13.670Z,18.58
2024-04-08T12:46:44.532Z,13.07
2024-04-08T12:49:15.980Z,15.40
2024-04-08T12:51:50.589Z,14.68
2024-04-08T12:54:18.790Z,13.13
2024-04-08T12:56:49.889Z,10.68
2024-04-08T12:59:20.546Z,20.88
2024-04-08T13:01:50.836Z,12.10
2024-04-08T13:04:18.648Z,20.38
2024-04-08T13:06:49.014Z,19.60
2024-04-08T13:09:16.834Z,16.38
2024-04-08T13:11:47.374Z,14.07
2024-04-08T13:14:15.016Z,14.05
2024-04-08T13:16:48.094Z,15.55
2024-04-08T13:19:15.948Z,10.25
2024-04-08T13:21:47.146Z,17.25
2024-04-08T13:24:15.411Z,18.15
2024-04-08T13:26:46.352Z,13.93
2024-04-08T13:29:14.005Z,24.13
2024-04-08T13:31:46.089Z,27.17
2024-04-08T13:34:18.962Z,29.15
2024-04-08T13:36:49.962Z,15.68
2024-04-08T13:39:18.434Z,17.15
2024-04-08T13:41:48.938Z,17.90
2024-04-08T13:44:16.643Z,25.65
2024-04-08T13:46:47.270Z,21.75
2024-04-08T13:49:17.728Z,22.48
2024-04-08T13:51:57.005Z,16.95
2024-04-08T13:54:30.076Z,17.95
2024-04-08T13:57:10.329Z,11.00
2024-04-08T13:59:41.024Z,18.23
2024-04-08T14:02:11.829Z,13.88
2024-04-08T14:04:42.288Z,22.05
2024-04-08T14:07:13.311Z,17.60
2024-04-08T14:09:40.985Z,15.80
2024-04-08T14:12:11.623Z,17.90
2024-04-08T14:14:39.236Z,17.63
2024-04-08T14:17:09.660Z,14.73
2024-04-08T14:19:37.268Z,20.55
2024-04-08T14:22:10.317Z,14.00
2024-04-08T14:24:37.865Z,12.20
2024-04-08T14:27:11.996Z,22.08
2024-04-08T14:29:48.140Z,19.08
2024-04-08T14:32:23.119Z,15.38
2024-04-08T14:34:53.257Z,22.65
2024-04-08T14:38:00.901Z,15.82
2024-04-08T14:40:30.674Z,17.02
2024-04-08T14:43:12.476Z,18.77
2024-04-08T14:45:43.576Z,12.40
2024-04-08T14:48:13.932Z,12.77
2024-04-08T14:50:41.641Z,13.25
2024-04-08T14:53:15.968Z,13.30
2024-04-08T14:55:44.075Z,16.85
2024-04-08T14:58:14.785Z,16.75
2024-04-08T15:00:42.967Z,19.90
2024-04-08T15:03:13.425Z,26.58
2024-04-08T15:05:44.469Z,24.77
2024-04-08T15:08:21.319Z,13.52
2024-04-08T15:10:52.707Z,30.63
2024-04-08T15:13:20.414Z,15.27
2024-04-08T15:15:51.794Z,20.95
2024-04-08T15:18:19.554Z,22.00
2024-04-08T15:20:50.102Z,20.20
2024-04-08T15:23:20.630Z,17.58
2024-04-08T15:25:51.018Z,13.27
2024-04-08T15:28:20.963Z,19.33
2024-04-08T15:30:59.653Z,18.27
2024-04-08T15:33:28.271Z,18.60
2024-04-08T15:36:01.639Z,12.25
2024-04-08T15:38:32.198Z,18.50
2024-04-08T15:41:03.821Z,21.23
2024-04-08T15:43:31.636Z,15.27
2024-04-08T15:46:04.178Z,22.65
2024-04-08T15:48:33.728Z,21.92
2024-04-08T15:51:07.168Z,21.10
2024-04-08T15:53:37.479Z,19.77
2024-04-08T15:56:08.772Z,18.08
2024-04-08T15:58:37.946Z,20.92
2024-04-08T16:01:08.637Z,29.15
2024-04-08T16:03:36.562Z,21.45
2024-04-08T16:06:14.428Z,16.70
2024-04-08T16:08:45.962Z,17.23
2024-04-08T16:11:21.914Z,21.58
2024-04-08T16:13:49.970Z,17.95
2024-04-08T16:16:20.384Z,19.25
2024-04-08T16:18:49.202Z,19.52
2024-04-08T16:21:24.011Z,19.90
2024-04-08T16:23:56.421Z,19.63
2024-04-08T16:26:27.724Z,20.25
2024-04-08T16:28:59.763Z,22.55
2024-04-08T16:31:34.270Z,26.08
2024-04-08T16:34:02.708Z,23.15
2024-04-08T16:36:33.778Z,20.80
2024-04-08T16:39:08.404Z,19.38
2024-04-08T16:41:38.658Z,21.13
2024-04-08T16:44:08.290Z,17.83
2024-04-08T16:46:38.802Z,20.98
2024-04-08T16:49:06.624Z,21.05
2024-04-08T16:51:38.031Z,25.88
2024-04-08T16:54:08.531Z,17.00
2024-04-08T16:56:38.872Z,23.63
2024-04-08T16:59:06.483Z,23.30
2024-04-08T17:01:39.512Z,28.45
2024-04-08T17:04:07.937Z,23.33
2024-04-08T17:06:41.596Z,19.52
2024-04-08T17:09:12.822Z,23.77
2024-04-08T17:11:43.300Z,18.17
2024-04-08T17:14:11.006Z,14.85
2024-04-08T17:16:41.334Z,27.95
2024-04-08T17:19:09.042Z,26.38
2024-04-08T17:21:39.826Z,17.52
2024-04-08T17:24:10.853Z,24.73
2024-04-08T17:26:44.223Z,18.17
2024-04-08T17:29:11.839Z,19.63
2024-04-08T17:31:42.077Z,14.38
2024-04-08T17:34:11.172Z,14.70
2024-04-08T17:36:41.883Z,20.02
2024-04-08T17:39:16.920Z,27.00
2024-04-08T17:41:48.931Z,19.42
2024-04-08T17:44:16.696Z,14.45
2024-04-08T17:46:47.021Z,29.05
2024-04-08T17:49:14.885Z,20.55
2024-04-08T17:51:45.336Z,19.38
2024-04-08T17:54:17.871Z,20.08
2024-04-08T17:56:48.302Z,20.50
2024-04-08T17:59:15.921Z,15.90
2024-04-08T18:01:47.612Z,22.52
2024-04-08T18:04:15.672Z,27.13
2024-04-08T18:06:46.144Z,28.00
2024-04-08T18:09:18.279Z,30.52
2024-04-08T18:11:54.016Z,20.70
2024-04-08T18:14:24.700Z,49.55
2024-04-08T18:16:55.006Z,49.22
2024-04-08T18:19:22.558Z,46.10
2024-04-08T18:21:52.842Z,42.13
2024-04-08T18:24:24.637Z,50.53
2024-04-08T18:26:54.916Z,55.70
2024-04-08T18:29:22.625Z,46.47
2024-04-08T18:31:52.850Z,41.28
2024-04-08T18:34:20.686Z,40.53
2024-04-08T18:36:52.402Z,38.80
2024-04-08T18:39:25.417Z,48.60
2024-04-08T18:41:54.474Z,34.88
2024-04-08T18:44:27.504Z,41.80
2024-04-08T18:46:55.135Z,45.05
2024-04-08T18:49:25.739Z,27.27
2024-04-08T18:51:53.563Z,28.65
2024-04-08T18:54:27.603Z,29.38
2024-04-08T18:56:59.472Z,30.98
2024-04-08T18:59:38.447Z,23.67
2024-04-08T19:02:38.934Z,23.65
2024-04-08T19:05:11.388Z,20.85
2024-04-08T19:07:39.208Z,18.08
2024-04-08T19:10:13.769Z,19.52
2024-04-08T19:12:47.462Z,21.83
2024-04-08T19:15:20.821Z,23.98
2024-04-08T19:17:49.017Z,20.60
2024-04-08T19:20:19.747Z,18.73
2024-04-08T19:22:47.511Z,16.23
2024-04-08T19:25:21.774Z,18.60
2024-04-08T19:27:56.794Z,21.02
2024-04-08T19:30:41.642Z,16.58
2024-04-08T19:33:09.397Z,14.27
2024-04-08T19:35:39.790Z,15.80
2024-04-08T19:38:08.027Z,18.27
2024-04-08T19:40:46.168Z,21.58
2024-04-08T19:43:19.636Z,13.43
2024-04-08T19:46:21.211Z,15.02
2024-04-08T19:48:52.295Z,18.45
2024-04-08T19:51:37.684Z,17.33
2024-04-08T19:54:09.981Z,18.13
2024-04-08T19:57:10.837Z,15.75
2024-04-08T20:00:06.564Z,16.67
2024-04-08T20:03:08.126Z,24.60
2024-04-08T20:05:38.006Z,23.08
2024-04-08T20:08:15.895Z,24.42
2024-04-08T20:11:18.572Z,14.65
2024-04-08T20:14:14.251Z,15.27
2024-04-08T20:16:54.217Z,18.42
2024-04-08T20:19:37.928Z,12.13
2024-04-08T20:22:08.453Z,23.05
2024-04-08T20:24:43.922Z,16.88
2024-04-08T20:27:11.600Z,21.70
2024-04-08T20:29:44.550Z,21.67
2024-04-08T20:32:12.213Z,15.90
2024-04-08T20:34:42.533Z,23.08
2024-04-08T20:37:12.173Z,18.58
2024-04-08T20:39:42.386Z,26.67
2024-04-08T20:42:10.180Z,14.77
2024-04-08T20:44:43.105Z,19.63
2024-04-08T20:47:10.806Z,15.52
2024-04-08T20:49:41.181Z,17.90
2024-04-08T20:52:09.158Z,15.95
2024-04-08T20:54:39.828Z,24.38
2024-04-08T20:57:08.008Z,16.83
2024-04-08T20:59:38.233Z,17.95
2024-04-08T21:02:09.122Z,13.15
2024-04-08T21:04:39.682Z,15.98
2024-04-08T21:07:08.552Z,15.23
2024-04-08T21:09:39.658Z,13.98
2024-04-08T21:12:07.670Z,26.80
2024-04-08T21:14:39.001Z,15.68
2024-04-08T21:17:10.429Z,21.80
2024-04-08T21:19:40.979Z,12.77
2024-04-08T21:22:08.603Z,11.32
2024-04-08T21:24:39.636Z,9.65
2024-04-08T21:27:07.384Z,15.80
2024-04-08T21:29:37.702Z,13.75
2024-04-08T21:32:08.402Z,18.80
2024-04-08T21:34:38.743Z,13.00
2024-04-08T21:37:06.420Z,13.43
2024-04-08T21:39:36.768Z,8.23
2024-04-08T21:42:05.272Z,17.98
2024-04-08T21:44:35.634Z,17.27
2024-04-08T21:47:03.301Z,17.13
2024-04-08T21:49:36.435Z,7.05
2024-04-08T21:52:04.501Z,16.90
2024-04-08T21:54:36.425Z,11.25
2024-04-08T21:57:04.422Z,12.60
2024-04-08T21:59:34.913Z,17.45
2024-04-08T22:02:02.559Z,13.95
2024-04-08T22:04:35.636Z,17.55
2024-04-08T22:07:03.354Z,11.47
2024-04-08T22:09:33.685Z,12.55
2024-04-08T22:12:01.471Z,15.27
2024-04-08T22:14:31.774Z,14.63
2024-04-08T22:16:59.525Z,11.88
2024-04-08T22:19:30.100Z,14.75
2024-04-08T22:22:00.378Z,11.63
2024-04-08T22:24:30.832Z,13.70
2024-04-08T22:26:58.600Z,11.07
2024-04-08T22:29:30.637Z,13.18
2024-04-08T22:31:58.278Z,13.00
2024-04-08T22:34:28.659Z,11.93
2024-04-08T22:36:56.334Z,10.80
2024-04-08T22:39:29.312Z,13.60
2024-04-08T22:41:57.129Z,14.10
2024-04-08T22:44:27.492Z,15.93
2024-04-08T22:46:55.188Z,13.15
2024-04-08T22:49:25.679Z,14.50
2024-04-08T22:51:53.337Z,17.07
2024-04-08T22:54:23.611Z,19.63
2024-04-08T22:56:53.961Z,14.70
2024-04-08T22:59:24.278Z,17.60
2024-04-08T23:01:52.071Z,17.97
2024-04-08T23:04:22.884Z,10.17
2024-04-08T23:06:50.619Z,13.37
2024-04-08T23:09:20.941Z,11.30
2024-04-08T23:11:48.603Z,12.07
2024-04-08T23:14:21.505Z,11.93
2024-04-08T23:16:49.425Z,16.43
2024-04-08T23:19:19.934Z,9.00
2024-04-08T23:21:47.674Z,16.60
2024-04-08T23:24:18.109Z,14.80
2024-04-08T23:26:45.719Z,16.87
2024-04-08T23:29:15.991Z,13.77
2024-04-08T23:31:48.943Z,12.77
2024-04-08T23:34:16.754Z,9.97
2024-04-08T23:36:47.187Z,12.37
2024-04-08T23:39:15.640Z,9.20
2024-04-08T23:41:45.988Z,13.20
2024-04-08T23:44:13.576Z,15.10
2024-04-08T23:46:43.849Z,12.80
2024-04-08T23:49:15.985Z,11.97
2024-04-08T23:51:46.633Z,11.70
2024-04-08T23:54:14.250Z,14.47
2024-04-08T23:56:44.440Z,12.03
2024-04-08T23:59:12.343Z,8.33
